Time;durP1;ratioP1;P1;durP2;ratioP2;P2;SDS_P1;SDS_P2;PMS_P1;PMS_P2;Temp;Humidity;BMP_temperature;BMP_pressure;BME280_temperature;BME280_humidity;BME280_pressure;Samples;Min_cycle;Max_cycle;Signal;HPM_P1;HPM_P2
2023/03/01 00:01:27;;;;;;;17.67;10.83;;;1.80;60.40;;;;;;5044951;28;20244;-85
2023/03/01 00:03:53;;;;;;;10.10;9.03;;;1.60;61.10;;;;;;5044542;28;20234;-87
2023/03/01 00:06:20;;;;;;;12.47;11.17;;;1.40;62.00;;;;;;5024062;28;20678;-88
2023/03/01 00:08:46;;;;;;;13.77;11.57;;;1.30;63.00;;;;;;5042419;28;20169;-87
2023/03/01 00:11:23;;;;;;;11.77;10.27;;;1.20;63.70;;;;;;5043650;28;20180;-85
2023/03/01 00:13:52;;;;;;;11.57;10.37;;;1.20;63.80;;;;;;5063841;28;20203;-87
2023/03/01 00:16:24;;;;;;;10.60;9.43;;;1.30;63.40;;;;;;5063519;28;20243;-87
2023/03/01 00:18:50;;;;;;;10.87;9.77;;;1.30;63.30;;;;;;5064550;28;20168;-87
2023/03/01 00:21:16;;;;;;;13.20;10.53;;;1.40;63.40;;;;;;5052633;28;20188;-86
2023/03/01 00:23:42;;;;;;;11.57;10.13;;;1.50;63.10;;;;;;5064445;28;20173;-87
2023/03/01 00:26:12;;;;;;;13.57;10.13;;;1.40;62.40;;;;;;5045567;28;20220;-86
2023/03/01 00:28:38;;;;;;;10.57;9.57;;;1.30;63.70;;;;;;5063098;28;20211;-86
2023/03/01 00:31:12;;;;;;;10.97;9.87;;;1.30;64.00;;;;;;5065671;28;20192;-88
2023/03/01 00:33:38;;;;;;;9.93;8.93;;;1.30;63.50;;;;;;5066743;28;20160;-87
2023/03/01 00:36:04;;;;;;;14.30;9.17;;;1.30;64.60;;;;;;5068163;28;20235;-85
2023/03/01 00:38:32;;;;;;;10.53;9.43;;;1.30;64.30;;;;;;5070722;28;20184;-87
2023/03/01 00:41:07;;;;;;;10.20;9.20;;;1.30;63.80;;;;;;5072261;28;20194;-87
2023/03/01 00:43:39;;;;;;;12.40;10.23;;;1.40;63.90;;;;;;5071740;28;20183;-86
2023/03/01 00:46:06;;;;;;;9.90;8.90;;;1.40;63.80;;;;;;5068854;28;20220;-85
2023/03/01 00:48:33;;;;;;;10.10;9.10;;;1.50;64.30;;;;;;5064461;28;20198;-86
2023/03/01 00:51:05;;;;;;;10.33;9.23;;;1.60;63.60;;;;;;5063596;28;20184;-87
2023/03/01 00:53:31;;;;;;;11.53;9.33;;;1.60;63.70;;;;;;5063443;28;20180;-86
2023/03/01 00:55:57;;;;;;;11.77;9.97;;;1.60;62.70;;;;;;5061976;28;20219;-84
2023/03/01 00:58:23;;;;;;;12.30;9.97;;;1.60;63.00;;;;;;5050959;28;20215;-86
2023/03/01 01:00:49;;;;;;;12.23;10.10;;;1.60;62.40;;;;;;5041871;28;20223;-86
2023/03/01 01:03:14;;;;;;;12.50;10.03;;;1.50;63.10;;;;;;5041153;28;20234;-85
2023/03/01 01:05:40;;;;;;;11.43;10.17;;;1.40;62.90;;;;;;5040478;28;20197;-85
2023/03/01 01:08:06;;;;;;;12.33;9.93;;;1.20;63.70;;;;;;5042271;28;20204;-84
2023/03/01 01:10:34;;;;;;;11.37;10.03;;;1.20;64.60;;;;;;5054602;28;20185;-87
2023/03/01 01:13:00;;;;;;;11.33;10.10;;;1.10;64.60;;;;;;5062338;28;20180;-86
2023/03/01 01:15:26;;;;;;;11.13;9.93;;;1.00;64.90;;;;;;5062539;28;20180;-88
2023/03/01 01:17:51;;;;;;;9.90;8.90;;;0.90;65.70;;;;;;5063393;28;20187;-86
2023/03/01 01:20:17;;;;;;;11.50;10.03;;;0.90;66.70;;;;;;5061413;28;20195;-86
2023/03/01 01:22:43;;;;;;;11.80;10.23;;;1.00;66.20;;;;;;5042624;28;20177;-87
2023/03/01 01:25:09;;;;;;;11.00;9.90;;;1.00;65.70;;;;;;5045398;28;20207;-86
2023/03/01 01:27:34;;;;;;;11.20;9.77;;;1.00;66.00;;;;;;5062671;28;20216;-87
2023/03/01 01:30:00;;;;;;;12.23;10.40;;;1.10;66.60;;;;;;5062359;28;20176;-87
2023/03/01 01:32:26;;;;;;;10.87;9.77;;;1.00;65.70;;;;;;5062134;28;20172;-85
2023/03/01 01:34:52;;;;;;;11.17;9.13;;;1.00;66.10;;;;;;5061411;28;20184;-85
2023/03/01 01:37:17;;;;;;;13.37;10.47;;;1.10;66.40;;;;;;5058044;28;20224;-86
2023/03/01 01:39:43;;;;;;;12.20;9.73;;;1.10;66.10;;;;;;5036419;28;20649;-87
2023/03/01 01:42:18;;;;;;;9.97;8.53;;;1.10;66.50;;;;;;5062541;28;20229;-87
2023/03/01 01:44:46;;;;;;;10.70;9.43;;;1.30;66.60;;;;;;5045305;28;20625;-84
2023/03/01 01:47:20;;;;;;;10.40;9.33;;;1.50;65.90;;;;;;5063399;28;20273;-87
2023/03/01 01:49:56;;;;;;;11.33;9.63;;;1.50;64.70;;;;;;5062080;28;20251;-86
2023/03/01 01:52:21;;;;;;;11.20;10.13;;;1.50;64.40;;;;;;5056591;28;20182;-86
2023/03/01 01:55:10;;;;;;;10.67;9.57;;;1.50;65.10;;;;;;5042148;28;20177;-86
2023/03/01 01:57:45;;;;;;;13.00;10.07;;;1.50;64.50;;;;;;5040930;28;20184;-87
2023/03/01 02:00:19;;;;;;;12.77;9.97;;;1.40;64.10;;;;;;5040383;28;20271;-86
2023/03/01 02:02:47;;;;;;;11.73;10.47;;;1.40;64.60;;;;;;5022489;28;20173;-85
2023/03/01 02:05:24;;;;;;;11.83;10.07;;;1.40;64.90;;;;;;5045608;28;20206;-85
2023/03/01 02:07:50;;;;;;;12.27;10.53;;;1.30;64.70;;;;;;5061143;28;20200;-87
2023/03/01 02:10:16;;;;;;;11.83;10.37;;;1.10;65.30;;;;;;5061194;28;20183;-87
2023/03/01 02:12:42;;;;;;;12.73;10.47;;;1.00;66.40;;;;;;5061900;28;20184;-87
2023/03/01 02:15:08;;;;;;;9.77;8.77;;;1.00;67.00;;;;;;5044585;28;20172;-86
2023/03/01 02:17:35;;;;;;;11.40;9.77;;;1.10;67.50;;;;;;5062538;28;20204;-85
2023/03/01 02:20:09;;;;;;;11.87;10.40;;;1.20;66.90;;;;;;5052824;28;20207;-87
2023/03/01 02:22:38;;;;;;;11.27;10.07;;;1.10;66.10;;;;;;5056796;28;20195;-85
2023/03/01 02:25:18;;;;;;;12.17;10.97;;;1.00;66.70;;;;;;5062756;28;20615;-86
2023/03/01 02:28:08;;;;;;;11.13;10.03;;;0.90;66.70;;;;;;5063444;28;20223;-85
2023/03/01 02:30:34;;;;;;;12.67;9.97;;;0.90;67.70;;;;;;5063004;28;20157;-86
2023/03/01 02:33:03;;;;;;;11.70;10.07;;;0.90;67.90;;;;;;5062702;28;20423;-85
2023/03/01 02:35:38;;;;;;;11.33;10.13;;;1.00;67.80;;;;;;5043631;28;20192;-86
2023/03/01 02:38:07;;;;;;;13.00;10.87;;;1.00;67.20;;;;;;5044038;28;20215;-86
2023/03/01 02:40:35;;;;;;;12.67;10.87;;;1.00;67.10;;;;;;5041484;28;20176;-85
2023/03/01 02:43:04;;;;;;;11.93;10.70;;;1.00;67.70;;;;;;5043107;28;20177;-86
2023/03/01 02:45:29;;;;;;;12.17;10.73;;;1.10;67.30;;;;;;5040686;28;20581;-85
2023/03/01 02:47:57;;;;;;;12.47;9.60;;;1.00;66.70;;;;;;5037188;28;20205;-87
2023/03/01 02:50:25;;;;;;;12.17;10.40;;;1.00;67.00;;;;;;5040862;28;20188;-86
2023/03/01 02:52:59;;;;;;;13.30;9.73;;;1.00;67.30;;;;;;5040497;28;20220;-86
2023/03/01 02:55:25;;;;;;;11.73;10.53;;;1.00;68.00;;;;;;5022716;28;20219;-86
2023/03/01 02:57:51;;;;;;;12.77;10.90;;;1.20;67.50;;;;;;5020981;28;20604;-85
2023/03/01 03:00:22;;;;;;;12.67;10.37;;;1.20;66.50;;;;;;5040311;28;20486;-84
2023/03/01 03:02:50;;;;;;;13.63;10.70;;;1.20;66.60;;;;;;5023197;28;20240;-86
2023/03/01 03:05:19;;;;;;;12.43;10.80;;;1.10;66.30;;;;;;5041294;28;20173;-86
2023/03/01 03:07:46;;;;;;;11.57;9.93;;;1.00;67.20;;;;;;5041165;28;20235;-85
2023/03/01 03:10:19;;;;;;;12.07;10.77;;;0.80;67.70;;;;;;5033529;28;20184;-85
2023/03/01 03:12:56;;;;;;;13.13;10.80;;;0.70;68.50;;;;;;5063985;28;20187;-85
2023/03/01 03:15:23;;;;;;;11.77;10.57;;;0.50;69.40;;;;;;5063569;28;20176;-86
2023/03/01 03:17:50;;;;;;;12.17;10.87;;;0.30;70.10;;;;;;5061287;28;20196;-85
2023/03/01 03:20:18;;;;;;;13.67;11.83;;;0.30;70.30;;;;;;5060697;28;20191;-86
2023/03/01 03:22:49;;;;;;;12.03;10.47;;;0.30;70.60;;;;;;5044681;28;20188;-86
2023/03/01 03:25:16;;;;;;;13.57;11.27;;;0.20;70.80;;;;;;5044876;28;20192;-86
2023/03/01 03:27:43;;;;;;;12.07;10.87;;;0.30;71.10;;;;;;5049451;28;20200;-86
2023/03/01 03:30:12;;;;;;;12.70;11.37;;;0.40;71.50;;;;;;5048758;28;20173;-87
2023/03/01 03:32:40;;;;;;;13.20;10.53;;;0.50;70.10;;;;;;5045544;28;20241;-86
2023/03/01 03:35:11;;;;;;;16.80;11.80;;;0.50;70.00;;;;;;5044686;28;20203;-84
2023/03/01 03:40:29;;;;;;;11.60;10.33;;;0.20;70.90;;;;;;5064254;28;20195;-87
2023/03/01 03:42:55;;;;;;;12.53;11.23;;;0.20;71.60;;;;;;5063183;28;20195;-84
2023/03/01 03:45:21;;;;;;;15.47;11.20;;;0.10;71.70;;;;;;5062448;28;20180;-85
2023/03/01 03:47:47;;;;;;;14.17;12.07;;;0.20;72.00;;;;;;5062589;28;20205;-85
2023/03/01 03:50:14;;;;;;;14.40;11.70;;;0.20;71.70;;;;;;5043948;28;20181;-86
2023/03/01 03:52:40;;;;;;;13.00;11.03;;;0.30;71.60;;;;;;5049437;28;20181;-85
2023/03/01 03:55:09;;;;;;;16.53;12.23;;;0.30;71.90;;;;;;5041009;28;20203;-87
2023/03/01 03:57:35;;;;;;;13.17;11.23;;;0.30;71.40;;;;;;5041638;28;20192;-85
2023/03/01 04:00:03;;;;;;;12.37;10.57;;;0.40;71.30;;;;;;5042199;28;20791;-87
2023/03/01 04:02:29;;;;;;;14.23;11.43;;;0.40;71.10;;;;;;5043103;28;20189;-85
2023/03/01 04:04:54;;;;;;;14.17;12.03;;;0.40;70.40;;;;;;5043540;28;20195;-84
2023/03/01 04:07:20;;;;;;;13.77;11.77;;;0.40;71.30;;;;;;5042323;28;20204;-86
2023/03/01 04:09:46;;;;;;;12.93;11.47;;;0.40;70.80;;;;;;5064173;28;20218;-87
2023/03/01 04:12:11;;;;;;;14.63;11.60;;;0.40;71.60;;;;;;5064527;28;20185;-84
2023/03/01 04:14:37;;;;;;;16.00;12.77;;;0.40;71.10;;;;;;5065341;28;20188;-86
2023/03/01 04:17:05;;;;;;;12.87;11.53;;;0.40;70.90;;;;;;5064164;28;20232;-85
2023/03/01 04:19:35;;;;;;;13.00;11.60;;;0.40;71.00;;;;;;5063694;28;20171;-86
2023/03/01 04:22:09;;;;;;;15.90;12.63;;;0.40;71.50;;;;;;5049467;28;20234;-85
2023/03/01 04:24:35;;;;;;;12.57;11.27;;;0.30;71.00;;;;;;5063618;28;20157;-85
2023/03/01 04:27:01;;;;;;;12.60;11.30;;;0.10;71.60;;;;;;5062650;28;20235;-85
2023/03/01 04:29:26;;;;;;;15.80;12.80;;;0.10;72.30;;;;;;5063172;28;20558;-85
2023/03/01 04:31:52;;;;;;;15.27;12.10;;;0.00;72.30;;;;;;5062883;28;20658;-85
2023/03/01 04:34:18;;;;;;;14.13;12.13;;;-0.10;73.10;;;;;;5062127;28;20179;-87
2023/03/01 04:36:43;;;;;;;16.13;12.37;;;-0.10;73.70;;;;;;5044504;28;20200;-85
2023/03/01 04:39:12;;;;;;;16.67;13.60;;;0.00;73.60;;;;;;5121497;23;20239;-86
2023/03/01 04:41:39;;;;;;;17.53;14.37;;;0.00;73.60;;;;;;5087122;28;20175;-86
2023/03/01 04:44:05;;;;;;;18.07;13.47;;;0.00;73.50;;;;;;5086833;28;20240;-87
2023/03/01 04:46:30;;;;;;;19.00;15.33;;;0.00;73.20;;;;;;5086536;28;20199;-86
2023/03/01 04:48:56;;;;;;;18.27;13.50;;;-0.10;73.20;;;;;;5095218;28;20256;-85
2023/03/01 04:51:22;;;;;;;15.70;13.03;;;-0.10;73.90;;;;;;5106625;28;20243;-87
2023/03/01 04:53:47;;;;;;;19.63;14.57;;;-0.20;74.20;;;;;;5107074;28;20547;-87
2023/03/01 04:56:14;;;;;;;16.07;13.47;;;-0.10;74.00;;;;;;5107287;28;20179;-85
2023/03/01 04:58:40;;;;;;;18.50;13.70;;;-0.20;74.10;;;;;;5108619;28;20259;-86
2023/03/01 05:01:18;;;;;;;16.97;14.90;;;-0.20;74.10;;;;;;5108005;28;20191;-86
2023/03/01 05:03:46;;;;;;;29.43;24.13;;;-0.20;74.00;;;;;;5108425;28;20193;-85
2023/03/01 05:06:13;;;;;;;23.93;18.33;;;-0.30;74.60;;;;;;5108688;28;20198;-86
2023/03/01 05:08:39;;;;;;;19.37;14.83;;;-0.30;74.90;;;;;;5109779;28;20204;-87
2023/03/01 05:11:08;;;;;;;18.77;14.90;;;-0.30;75.00;;;;;;5107976;28;20186;-86
2023/03/01 05:13:35;;;;;;;16.63;13.50;;;-0.30;74.90;;;;;;5110097;28;20175;-86
2023/03/01 05:16:01;;;;;;;16.80;13.67;;;-0.20;75.10;;;;;;5110938;28;20183;-86
2023/03/01 05:18:31;;;;;;;17.10;14.63;;;-0.10;74.80;;;;;;5106701;28;20201;-84
2023/03/01 05:21:05;;;;;;;18.93;14.23;;;-0.20;74.00;;;;;;5108399;28;20167;-87
2023/03/01 05:23:32;;;;;;;16.17;13.80;;;-0.10;74.70;;;;;;5100324;28;20378;-86
2023/03/01 05:25:59;;;;;;;17.50;13.87;;;-0.20;75.10;;;;;;5098441;28;20199;-88
2023/03/01 05:28:25;;;;;;;18.50;14.13;;;-0.20;74.50;;;;;;5107478;28;20261;-86
2023/03/01 05:30:51;;;;;;;16.87;13.33;;;-0.20;74.50;;;;;;5089066;28;20179;-88
2023/03/01 05:33:18;;;;;;;15.10;13.50;;;-0.40;75.10;;;;;;5104556;28;20246;-86
2023/03/01 05:35:44;;;;;;;17.90;14.73;;;-0.40;75.90;;;;;;5103872;28;20214;-87
2023/03/01 05:38:14;;;;;;;16.03;14.33;;;-0.40;75.50;;;;;;5103257;28;20700;-85
2023/03/01 05:40:41;;;;;;;17.37;14.43;;;-0.40;75.90;;;;;;5102047;28;20763;-85
2023/03/01 05:43:07;;;;;;;17.53;14.23;;;-0.50;76.20;;;;;;5102691;28;20767;-85
2023/03/01 05:45:36;;;;;;;15.10;13.50;;;-0.40;76.20;;;;;;5102548;28;20179;-86
2023/03/01 05:48:02;;;;;;;20.07;15.63;;;-0.50;76.20;;;;;;5103163;28;20240;-87
2023/03/01 05:50:29;;;;;;;19.73;14.07;;;-0.50;76.40;;;;;;5085137;28;20182;-87
2023/03/01 05:53:00;;;;;;;17.67;14.53;;;-0.50;76.60;;;;;;5103891;28;20202;-87
2023/03/01 05:55:27;;;;;;;16.20;13.30;;;-0.60;76.60;;;;;;5103511;28;20254;-85
2023/03/01 05:57:53;;;;;;;23.23;17.63;;;-0.60;77.40;;;;;;5105796;28;20175;-86
2023/03/01 06:00:22;;;;;;;27.17;20.60;;;-0.60;76.90;;;;;;5105482;28;20180;-85
2023/03/01 06:02:48;;;;;;;18.90;16.07;;;-0.60;77.60;;;;;;5097742;28;20298;-85
2023/03/01 06:05:14;;;;;;;20.63;14.37;;;-0.50;76.90;;;;;;5104538;28;20194;-85
2023/03/01 06:07:41;;;;;;;15.73;13.50;;;-0.50;76.60;;;;;;5095940;28;20238;-84
2023/03/01 06:10:08;;;;;;;16.00;13.20;;;-0.50;76.30;;;;;;5101114;28;20230;-86
2023/03/01 06:12:36;;;;;;;16.17;13.60;;;-0.50;76.80;;;;;;5104950;28;20640;-85
2023/03/01 06:15:02;;;;;;;17.87;14.67;;;-0.50;77.00;;;;;;5086208;28;20205;-84
2023/03/01 06:17:35;;;;;;;20.70;16.67;;;-0.60;77.30;;;;;;5104867;28;20190;-84
2023/03/01 06:20:01;;;;;;;30.30;22.33;;;-0.50;77.30;;;;;;5104678;28;20217;-85
2023/03/01 06:22:27;;;;;;;18.43;15.20;;;-0.60;76.90;;;;;;5092743;28;20201;-82
2023/03/01 06:24:52;;;;;;;27.53;23.70;;;-0.60;77.30;;;;;;5104908;28;20183;-84
2023/03/01 06:27:18;;;;;;;24.00;19.50;;;-0.60;77.10;;;;;;5102848;28;20205;-85
2023/03/01 06:29:44;;;;;;;19.50;15.77;;;-0.60;77.40;;;;;;5105600;28;20214;-86
2023/03/01 06:32:10;;;;;;;21.07;14.67;;;-0.60;77.30;;;;;;5087434;28;20351;-86
2023/03/01 06:34:35;;;;;;;21.03;18.67;;;-0.60;77.70;;;;;;5105580;28;20175;-85
2023/03/01 06:37:05;;;;;;;19.97;16.97;;;-0.70;77.80;;;;;;5104849;28;20182;-81
2023/03/01 06:39:31;;;;;;;19.03;17.07;;;-0.70;78.10;;;;;;5103520;28;20219;-88
2023/03/01 06:41:57;;;;;;;19.27;16.43;;;-0.60;77.50;;;;;;5104501;28;20308;-84
2023/03/01 06:44:23;;;;;;;18.23;15.33;;;-0.60;77.50;;;;;;5105952;28;20190;-86
2023/03/01 06:46:49;;;;;;;19.07;14.97;;;-0.60;77.40;;;;;;5106020;28;20206;-84
2023/03/01 06:49:16;;;;;;;20.23;16.07;;;-0.60;77.50;;;;;;5108791;28;20195;-86
2023/03/01 06:51:41;;;;;;;18.20;15.63;;;-0.60;77.10;;;;;;5108729;28;20226;-84
2023/03/01 06:54:07;;;;;;;20.03;15.23;;;-0.60;77.40;;;;;;5109083;28;20197;-85
2023/03/01 06:56:33;;;;;;;22.17;15.73;;;-0.50;77.20;;;;;;5111258;28;20205;-85
2023/03/01 06:58:59;;;;;;;18.53;15.30;;;-0.50;76.90;;;;;;5109805;28;20222;-84
2023/03/01 07:01:25;;;;;;;18.43;14.63;;;-0.50;77.20;;;;;;5109961;28;20179;-83
2023/03/01 07:03:56;;;;;;;22.83;16.30;;;-0.40;77.10;;;;;;5110054;28;20191;-84
2023/03/01 07:06:23;;;;;;;18.10;15.53;;;-0.40;76.40;;;;;;5109419;28;20236;-84
2023/03/01 07:08:48;;;;;;;18.23;15.30;;;-0.40;76.40;;;;;;5110177;28;20195;-83
2023/03/01 07:11:15;;;;;;;18.83;14.37;;;-0.40;76.60;;;;;;5110258;28;20241;-85
2023/03/01 07:13:40;;;;;;;21.53;16.47;;;-0.40;77.20;;;;;;5091904;28;20179;-83
2023/03/01 07:16:07;;;;;;;20.17;14.77;;;-0.40;76.60;;;;;;5110559;28;20198;-87
2023/03/01 07:18:32;;;;;;;20.00;16.20;;;-0.40;76.80;;;;;;5109924;28;20202;-85
2023/03/01 07:20:58;;;;;;;20.57;15.60;;;-0.40;76.80;;;;;;5091381;28;20183;-84
2023/03/01 07:23:24;;;;;;;18.27;14.07;;;-0.40;76.60;;;;;;5091644;28;20190;-84
2023/03/01 07:25:54;;;;;;;21.43;16.53;;;-0.30;76.80;;;;;;5109786;28;20277;-84
2023/03/01 07:28:20;;;;;;;20.60;16.00;;;-0.20;76.30;;;;;;5110615;28;20195;-86
2023/03/01 07:30:45;;;;;;;20.33;16.27;;;-0.20;76.10;;;;;;5110467;28;20205;-84
2023/03/01 07:33:11;;;;;;;18.60;15.97;;;-0.10;75.70;;;;;;5076211;28;20179;-85
2023/03/01 07:35:37;;;;;;;23.50;15.80;;;-0.10;75.50;;;;;;5110017;28;20186;-87
2023/03/01 07:38:02;;;;;;;18.43;16.07;;;-0.10;75.10;;;;;;5109221;28;20175;-84
2023/03/01 07:40:28;;;;;;;21.40;15.67;;;0.00;74.40;;;;;;5110315;28;20179;-86
2023/03/01 07:42:58;;;;;;;19.70;15.30;;;0.00;74.40;;;;;;5092700;28;20175;-85
2023/03/01 07:45:27;;;;;;;21.47;15.30;;;0.00;74.70;;;;;;5109008;28;20198;-85
2023/03/01 07:47:53;;;;;;;18.23;15.77;;;-0.10;74.40;;;;;;5107938;28;20210;-84
2023/03/01 07:50:19;;;;;;;20.70;16.13;;;0.00;74.60;;;;;;5091245;28;20202;-85
2023/03/01 07:52:46;;;;;;;19.40;15.63;;;0.00;74.40;;;;;;5109390;28;20172;-86
2023/03/01 07:55:12;;;;;;;21.83;16.10;;;0.00;74.10;;;;;;5109553;28;20171;-84
2023/03/01 07:57:38;;;;;;;19.53;15.80;;;0.00;73.50;;;;;;5108674;28;20189;-85
2023/03/01 08:00:05;;;;;;;19.90;14.87;;;0.00;73.80;;;;;;5098950;28;20207;-87
2023/03/01 08:02:31;;;;;;;18.83;16.27;;;0.10;73.80;;;;;;5108357;28;20408;-84
2023/03/01 08:04:56;;;;;;;19.93;15.97;;;0.20;73.50;;;;;;5107037;28;20228;-84
2023/03/01 08:07:22;;;;;;;19.67;14.63;;;0.20;73.60;;;;;;5090642;28;20263;-86
2023/03/01 08:09:48;;;;;;;17.60;14.83;;;0.30;73.60;;;;;;5108352;28;20194;-86
2023/03/01 08:12:16;;;;;;;17.77;15.87;;;0.40;72.50;;;;;;5108551;28;20183;-86
2023/03/01 08:14:41;;;;;;;18.73;15.07;;;0.40;72.10;;;;;;5108926;28;20426;-84
2023/03/01 08:17:07;;;;;;;18.23;14.20;;;0.40;72.00;;;;;;5108799;28;20177;-87
2023/03/01 08:19:34;;;;;;;21.73;17.20;;;0.50;72.80;;;;;;5109925;28;20205;-85
2023/03/01 08:22:03;;;;;;;17.77;14.87;;;0.60;70.90;;;;;;5110000;28;20195;-85
2023/03/01 08:24:29;;;;;;;20.50;15.47;;;0.70;71.00;;;;;;5108830;28;20186;-83
2023/03/01 08:26:55;;;;;;;18.57;14.57;;;0.70;70.30;;;;;;5109374;28;20211;-86
2023/03/01 08:29:21;;;;;;;19.50;16.10;;;0.80;69.70;;;;;;5109618;28;20211;-86
2023/03/01 08:31:48;;;;;;;18.80;14.87;;;0.70;70.20;;;;;;5107488;28;20281;-87
2023/03/01 08:34:16;;;;;;;19.30;15.83;;;0.90;69.70;;;;;;5108433;28;20171;-85
2023/03/01 08:36:45;;;;;;;21.13;16.30;;;1.00;69.20;;;;;;5108859;28;20183;-85
2023/03/01 08:39:13;;;;;;;22.07;16.77;;;1.20;69.40;;;;;;5108855;28;20226;-84
2023/03/01 08:41:39;;;;;;;22.20;16.90;;;1.30;68.40;;;;;;5108922;28;20194;-85
2023/03/01 08:44:05;;;;;;;18.43;16.17;;;1.30;68.50;;;;;;5108791;28;20218;-86
2023/03/01 08:46:35;;;;;;;20.40;15.40;;;1.30;67.20;;;;;;5109210;28;20214;-85
2023/03/01 08:49:07;;;;;;;20.20;16.03;;;1.30;67.30;;;;;;5110762;28;20203;-85
2023/03/01 08:51:36;;;;;;;31.23;16.07;;;1.30;67.40;;;;;;5092255;28;20325;-88
2023/03/01 08:54:06;;;;;;;19.17;16.00;;;1.40;66.90;;;;;;5111158;28;20220;-85
2023/03/01 08:56:32;;;;;;;21.83;16.43;;;1.50;66.90;;;;;;5108010;28;20218;-87
2023/03/01 08:58:58;;;;;;;21.87;14.50;;;1.50;66.70;;;;;;5108129;28;20210;-85
2023/03/01 09:01:23;;;;;;;19.53;15.63;;;1.70;66.60;;;;;;5107689;28;20209;-86
2023/03/01 09:03:49;;;;;;;18.57;15.57;;;1.70;66.50;;;;;;5108411;28;20179;-87
2023/03/01 09:06:15;;;;;;;17.70;14.67;;;1.90;65.90;;;;;;5088057;28;20209;-86
2023/03/01 09:08:44;;;;;;;19.50;15.33;;;1.90;65.40;;;;;;5106687;28;20233;-86
2023/03/01 09:11:12;;;;;;;18.53;15.70;;;1.90;64.90;;;;;;5090681;28;20182;-85
2023/03/01 09:13:38;;;;;;;20.97;16.93;;;2.00;65.10;;;;;;5108781;28;20174;-84
2023/03/01 09:16:06;;;;;;;20.83;16.87;;;2.10;64.50;;;;;;5108511;28;20197;-85
2023/03/01 09:18:32;;;;;;;25.10;16.50;;;2.10;64.40;;;;;;5108022;28;20232;-85
2023/03/01 09:21:07;;;;;;;19.57;16.13;;;2.10;64.50;;;;;;5099850;28;20188;-88
2023/03/01 09:23:39;;;;;;;19.30;15.90;;;2.10;64.30;;;;;;5086642;28;20186;-86
2023/03/01 09:26:25;;;;;;;20.03;16.30;;;2.20;63.90;;;;;;5098353;28;20335;-86
2023/03/01 09:28:54;;;;;;;21.27;17.03;;;2.30;63.50;;;;;;5106498;28;20242;-85
2023/03/01 09:31:21;;;;;;;20.33;16.50;;;2.30;63.60;;;;;;5106490;28;20466;-84
2023/03/01 09:33:49;;;;;;;18.53;15.60;;;2.40;62.90;;;;;;5104192;28;20197;-86
2023/03/01 09:36:17;;;;;;;17.47;14.70;;;2.50;62.60;;;;;;5085571;28;20179;-85
2023/03/01 09:38:43;;;;;;;21.67;16.50;;;2.60;61.70;;;;;;5105184;28;20251;-86
2023/03/01 09:41:23;;;;;;;20.77;16.03;;;2.60;62.20;;;;;;5105799;28;20182;-87
2023/03/01 09:43:53;;;;;;;20.30;16.73;;;2.70;62.20;;;;;;5087818;28;20300;-83
2023/03/01 09:46:21;;;;;;;20.50;17.07;;;2.90;61.30;;;;;;5106635;28;20233;-85
2023/03/01 09:49:08;;;;;;;19.77;16.87;;;3.00;61.10;;;;;;5108720;28;20305;-86
2023/03/01 09:51:36;;;;;;;20.23;17.63;;;3.10;60.10;;;;;;5103776;28;20187;-84
2023/03/01 09:54:08;;;;;;;21.50;16.13;;;3.30;59.60;;;;;;5102065;28;20186;-85
2023/03/01 09:56:55;;;;;;;20.93;18.03;;;3.50;59.00;;;;;;5106824;28;20175;-86
2023/03/01 09:59:37;;;;;;;21.70;17.40;;;3.50;58.60;;;;;;5108607;28;20229;-86
2023/03/01 10:02:39;;;;;;;18.37;16.40;;;3.60;58.50;;;;;;5108901;28;20178;-85
2023/03/01 10:05:18;;;;;;;19.00;16.23;;;3.70;57.80;;;;;;5108776;28;20238;-87
2023/03/01 10:08:13;;;;;;;20.60;16.47;;;3.90;57.80;;;;;;5108559;28;20220;-86
2023/03/01 10:10:43;;;;;;;21.97;16.17;;;4.10;56.80;;;;;;5110196;28;20175;-85
2023/03/01 10:13:53;;;;;;;23.60;18.47;;;4.30;55.50;;;;;;5110373;28;20201;-86
2023/03/01 10:16:28;;;;;;;21.37;16.23;;;4.60;55.10;;;;;;5006976;28;20295;-86
2023/03/01 10:19:01;;;;;;;18.50;16.50;;;4.60;55.00;;;;;;5007939;28;20224;-87
2023/03/01 10:21:31;;;;;;;22.57;17.33;;;4.70;54.60;;;;;;5067298;28;20206;-86
2023/03/01 10:24:08;;;;;;;23.40;17.27;;;4.90;53.70;;;;;;5106647;28;20185;-86
2023/03/01 10:26:46;;;;;;;19.10;16.50;;;5.10;53.00;;;;;;5104195;28;20264;-87
2023/03/01 10:29:13;;;;;;;23.00;17.07;;;5.10;52.90;;;;;;5104966;28;20201;-87
2023/03/01 10:31:48;;;;;;;19.10;16.27;;;5.30;52.30;;;;;;5104484;28;20179;-86
2023/03/01 10:34:19;;;;;;;21.03;17.63;;;5.30;51.60;;;;;;5105016;28;20179;-86
2023/03/01 10:36:48;;;;;;;22.63;16.90;;;5.30;51.80;;;;;;5104693;28;20203;-86
2023/03/01 10:39:20;;;;;;;22.10;17.70;;;5.40;51.00;;;;;;5106187;28;20278;-85
2023/03/01 10:42:02;;;;;;;19.50;17.07;;;5.70;51.00;;;;;;5107475;28;20270;-90
2023/03/01 10:44:46;;;;;;;20.83;17.03;;;5.80;49.90;;;;;;5088147;28;20541;-85
2023/03/01 10:47:20;;;;;;;20.53;17.07;;;5.90;49.90;;;;;;5106496;28;20225;-87
2023/03/01 10:49:56;;;;;;;20.80;18.03;;;6.20;49.00;;;;;;5101401;23;20288;-87
2023/03/01 10:52:26;;;;;;;20.50;18.40;;;6.10;49.00;;;;;;5076032;28;20182;-88
2023/03/01 10:55:22;;;;;;;20.13;17.00;;;6.10;48.70;;;;;;5077558;28;20176;-88
2023/03/01 10:57:48;;;;;;;18.93;16.60;;;6.20;48.60;;;;;;4968623;28;20199;-87
2023/03/01 11:00:23;;;;;;;19.27;17.10;;;6.40;48.20;;;;;;5068738;28;20338;-86
2023/03/01 11:03:14;;;;;;;19.83;16.93;;;6.60;47.60;;;;;;5077226;28;20183;-87
2023/03/01 11:06:02;;;;;;;22.83;17.53;;;6.70;47.50;;;;;;5066603;28;20196;-87
2023/03/01 11:08:38;;;;;;;19.53;17.53;;;6.90;47.00;;;;;;5068845;28;20224;-88
2023/03/01 11:11:11;;;;;;;19.90;17.57;;;7.20;45.50;;;;;;5079389;28;20174;-87
2023/03/01 11:13:50;;;;;;;21.47;16.97;;;7.10;45.70;;;;;;5079416;28;20187;-87
2023/03/01 11:16:24;;;;;;;19.77;17.67;;;7.10;45.70;;;;;;5078602;28;20241;-87
2023/03/01 11:19:03;;;;;;;19.10;16.80;;;7.10;45.50;;;;;;5079205;28;20255;-87
2023/03/01 11:21:33;;;;;;;20.60;16.80;;;7.30;45.60;;;;;;5078260;28;20160;-88
2023/03/01 11:24:01;;;;;;;19.77;17.77;;;7.30;44.30;;;;;;5078476;28;20207;-89
2023/03/01 11:26:28;;;;;;;19.63;17.63;;;7.30;45.10;;;;;;5076387;28;20203;-87
2023/03/01 11:28:58;;;;;;;20.27;18.27;;;7.60;44.50;;;;;;5077107;28;20209;-88
2023/03/01 11:31:25;;;;;;;19.63;17.63;;;7.60;43.70;;;;;;5076659;28;20237;-87
2023/03/01 11:34:02;;;;;;;21.30;18.27;;;7.70;43.70;;;;;;5080945;28;20267;-89
2023/03/01 11:36:37;;;;;;;20.23;17.53;;;7.70;43.50;;;;;;5082426;28;20190;-87
2023/03/01 11:39:28;;;;;;;20.47;17.87;;;7.80;43.60;;;;;;5081974;28;20695;-86
2023/03/01 11:42:06;;;;;;;20.07;18.07;;;8.10;43.10;;;;;;5083637;28;20171;-88
2023/03/01 11:44:36;;;;;;;24.70;22.10;;;8.30;41.90;;;;;;5083951;28;20654;-88
2023/03/01 11:47:14;;;;;;;25.97;23.17;;;8.10;42.20;;;;;;5083332;28;20191;-87
2023/03/01 11:50:05;;;;;;;35.93;27.33;;;8.10;42.80;;;;;;5094522;28;20278;-89
2023/03/01 11:52:45;;;;;;;20.30;17.90;;;8.10;42.90;;;;;;5087131;28;20187;-87
2023/03/01 11:55:29;;;;;;;20.73;18.53;;;8.10;42.40;;;;;;5094373;28;20181;-91
2023/03/01 11:58:07;;;;;;;21.73;19.53;;;8.20;42.80;;;;;;5089099;28;20171;-87
2023/03/01 12:00:44;;;;;;;20.57;18.23;;;8.70;42.30;;;;;;5080982;28;20175;-89
2023/03/01 12:03:21;;;;;;;24.47;21.73;;;8.80;40.70;;;;;;5083511;28;20176;-88
2023/03/01 12:06:03;;;;;;;19.77;17.67;;;8.70;41.30;;;;;;5081341;28;20175;-89
2023/03/01 12:08:37;;;;;;;19.87;17.77;;;9.00;41.00;;;;;;5080951;28;20225;-87
2023/03/01 12:11:13;;;;;;;21.87;19.57;;;9.10;40.80;;;;;;5081550;28;20201;-87
2023/03/01 12:14:27;;;;;;;22.20;19.87;;;9.30;39.80;;;;;;5079587;28;20270;-87
2023/03/01 12:17:14;;;;;;;23.30;19.33;;;9.40;39.40;;;;;;5058499;28;20177;-88
2023/03/01 12:19:58;;;;;;;22.27;19.97;;;9.80;39.00;;;;;;5058861;28;20678;-88
2023/03/01 12:22:31;;;;;;;20.03;18.03;;;9.90;38.40;;;;;;5078158;28;20184;-86
2023/03/01 12:25:41;;;;;;;20.47;18.37;;;9.80;38.30;;;;;;5084203;28;20398;-86
2023/03/01 12:28:31;;;;;;;20.10;18.03;;;9.60;39.20;;;;;;5030295;28;20586;-86
2023/03/01 12:31:26;;;;;;;20.40;18.17;;;10.00;37.80;;;;;;5059669;28;20169;-86
2023/03/01 12:34:09;;;;;;;21.03;18.93;;;10.20;37.70;;;;;;5060562;28;20173;-86
2023/03/01 12:37:10;;;;;;;20.87;18.70;;;10.40;37.90;;;;;;5075407;28;20196;-87
2023/03/01 12:40:12;;;;;;;21.47;19.07;;;10.30;37.00;;;;;;5079354;28;20786;-88
2023/03/01 12:42:57;;;;;;;20.20;18.20;;;10.50;37.00;;;;;;5071435;28;20191;-88
2023/03/01 12:46:04;;;;;;;20.27;18.13;;;10.70;37.00;;;;;;5080055;28;20183;-86
2023/03/01 12:49:01;;;;;;;19.03;17.23;;;10.80;36.40;;;;;;5080724;28;20246;-86
2023/03/01 12:51:31;;;;;;;21.43;19.33;;;10.80;36.20;;;;;;5080712;28;20192;-87
2023/03/01 12:54:02;;;;;;;20.60;18.50;;;10.60;36.60;;;;;;5082011;28;20209;-87
2023/03/01 12:56:31;;;;;;;20.30;18.10;;;11.00;36.60;;;;;;5080459;28;20206;-88